createdAt,value
2022-09-07T00:00:52.285Z,14.37
2022-09-07T00:03:18.346Z,14.34
2022-09-07T00:05:49.991Z,14.31
2022-09-07T00:08:13.994Z,14.27
2022-09-07T00:10:37.518Z,14.25
2022-09-07T00:13:00.693Z,14.21
2022-09-07T00:15:23.852Z,14.18
2022-09-07T00:17:48.954Z,14.13
2022-09-07T00:20:13.035Z,14.10
2022-09-07T00:22:39.778Z,14.08
2022-09-07T00:25:05.489Z,14.07
2022-09-07T00:27:34.279Z,14.05
2022-09-07T00:29:59.610Z,14.02
2022-09-07T00:32:22.641Z,13.99
2022-09-07T00:34:47.744Z,13.95
2022-09-07T00:37:11.029Z,13.92
2022-09-07T00:39:34.395Z,13.89
2022-09-07T00:42:02.130Z,13.87
2022-09-07T00:44:45.870Z,13.83
2022-09-07T00:47:29.304Z,13.78
2022-09-07T00:49:59.116Z,13.77
2022-09-07T00:52:27.598Z,13.77
2022-09-07T00:54:59.459Z,13.74
2022-09-07T00:57:22.924Z,13.71
2022-09-07T00:59:50.607Z,13.69
2022-09-07T01:02:17.592Z,13.67
2022-09-07T01:04:41.104Z,13.64
2022-09-07T01:07:07.159Z,13.62
2022-09-07T01:09:31.249Z,13.57
2022-09-07T01:11:58.354Z,13.54
2022-09-07T01:14:28.269Z,13.54
2022-09-07T01:17:12.828Z,13.55
2022-09-07T01:20:08.754Z,13.53
2022-09-07T01:23:03.858Z,13.48
2022-09-07T01:25:26.977Z,13.43
2022-09-07T01:28:19.153Z,13.39
2022-09-07T01:30:51.863Z,13.36
2022-09-07T01:33:27.178Z,13.33
2022-09-07T01:36:14.296Z,13.32
2022-09-07T01:38:46.877Z,13.30
2022-09-07T01:41:17.404Z,13.25
2022-09-07T01:43:58.999Z,13.23
2022-09-07T01:46:35.850Z,13.21
2022-09-07T01:49:10.703Z,13.18
2022-09-07T01:51:38.673Z,13.16
2022-09-07T01:54:10.125Z,13.15
2022-09-07T01:56:40.966Z,13.15
2022-09-07T01:59:12.849Z,13.12
2022-09-07T02:01:45.549Z,13.10
2022-09-07T02:04:30.371Z,13.08
2022-09-07T02:07:02.131Z,13.06
2022-09-07T02:09:33.994Z,13.03
2022-09-07T02:12:00.254Z,13.01
2022-09-07T02:14:34.440Z,13.01
2022-09-07T02:17:07.429Z,13.00
2022-09-07T02:19:39.491Z,13.00
2022-09-07T02:22:13.400Z,12.99
2022-09-07T02:24:43.666Z,12.97
2022-09-07T02:27:13.141Z,12.96
2022-09-07T02:29:43.659Z,12.92
2022-09-07T02:32:09.274Z,12.90
2022-09-07T02:34:33.008Z,12.87
2022-09-07T02:36:58.352Z,12.85
2022-09-07T02:39:23.558Z,12.81
2022-09-07T02:41:46.923Z,12.76
2022-09-07T02:44:26.774Z,12.71
2022-09-07T02:47:20.136Z,12.65
2022-09-07T02:50:04.625Z,12.60
2022-09-07T02:52:43.110Z,12.56
2022-09-07T02:55:14.983Z,12.49
2022-09-07T02:57:51.131Z,12.46
2022-09-07T03:00:21.023Z,12.40
2022-09-07T03:03:05.408Z,12.32
2022-09-07T03:05:42.970Z,12.17
2022-09-07T03:08:20.337Z,12.03
2022-09-07T03:10:46.430Z,11.93
2022-09-07T03:13:20.882Z,11.85
2022-09-07T03:15:46.007Z,11.84
2022-09-07T03:18:08.917Z,11.79
2022-09-07T03:20:31.618Z,11.74
2022-09-07T03:22:54.384Z,11.68
2022-09-07T03:25:17.480Z,11.63
2022-09-07T03:27:40.319Z,11.59
2022-09-07T03:30:07.734Z,11.51
2022-09-07T03:32:34.782Z,11.44
2022-09-07T03:34:57.544Z,11.40
2022-09-07T03:37:22.524Z,11.33
2022-09-07T03:39:47.897Z,11.26
2022-09-07T03:42:10.758Z,11.24
2022-09-07T03:44:33.655Z,11.19
2022-09-07T03:47:01.542Z,11.14
2022-09-07T03:49:24.594Z,11.11
2022-09-07T03:51:47.325Z,11.09
2022-09-07T03:54:12.566Z,11.06
2022-09-07T03:56:37.836Z,11.04
2022-09-07T03:59:00.556Z,11.05
2022-09-07T04:01:27.728Z,11.07
2022-09-07T04:03:51.416Z,11.08
2022-09-07T04:06:15.290Z,11.04
2022-09-07T04:08:40.377Z,10.98
2022-09-07T04:11:08.111Z,10.94
2022-09-07T04:13:34.787Z,10.91
2022-09-07T04:16:00.173Z,10.86
2022-09-07T04:18:25.585Z,10.87
2022-09-07T04:20:51.220Z,10.89
2022-09-07T04:23:17.069Z,10.90
2022-09-07T04:25:50.541Z,10.89
2022-09-07T04:28:15.709Z,10.89
2022-09-07T04:30:38.502Z,10.91
2022-09-07T04:33:03.493Z,10.95
2022-09-07T04:35:26.243Z,10.99
2022-09-07T04:37:49.114Z,11.02
2022-09-07T04:40:14.871Z,11.00
2022-09-07T04:42:38.312Z,11.01
2022-09-07T04:45:01.225Z,11.05
2022-09-07T04:47:26.457Z,11.10
2022-09-07T04:49:52.963Z,11.17
2022-09-07T04:52:15.610Z,11.23
2022-09-07T04:54:40.751Z,11.27
2022-09-07T04:57:06.037Z,11.37
2022-09-07T04:59:29.077Z,11.47
2022-09-07T05:01:51.865Z,11.56
2022-09-07T05:04:14.716Z,11.64
2022-09-07T05:06:40.535Z,11.72
2022-09-07T05:09:06.033Z,11.81
2022-09-07T05:11:31.624Z,11.89
2022-09-07T05:13:57.033Z,11.97
2022-09-07T05:16:23.504Z,12.00
2022-09-07T05:18:51.075Z,12.01
2022-09-07T05:21:20.177Z,12.11
2022-09-07T05:23:46.349Z,12.25
2022-09-07T05:26:12.806Z,12.40
2022-09-07T05:28:36.536Z,12.56
2022-09-07T05:31:17.345Z,12.69
2022-09-07T05:36:30.572Z,12.90
2022-09-07T05:38:57.117Z,13.02
2022-09-07T05:41:32.793Z,13.14
2022-09-07T05:46:38.530Z,13.36
2022-09-07T05:49:03.790Z,13.48
2022-09-07T05:51:26.914Z,13.62
2022-09-07T05:53:52.100Z,13.74
2022-09-07T05:56:15.258Z,13.82
2022-09-07T05:58:38.412Z,13.94
2022-09-07T06:01:08.464Z,14.03
2022-09-07T06:03:35.749Z,14.17
2022-09-07T06:06:03.156Z,14.31
2022-09-07T06:08:26.921Z,14.45
2022-09-07T06:10:49.559Z,14.59
2022-09-07T06:13:12.213Z,14.71
2022-09-07T06:15:37.284Z,14.84
2022-09-07T06:18:02.820Z,14.94
2022-09-07T06:20:27.850Z,15.13
2022-09-07T06:22:50.667Z,15.35
2022-09-07T06:25:15.977Z,15.60
2022-09-07T06:27:41.181Z,15.95
2022-09-07T06:30:09.765Z,16.36
2022-09-07T06:35:03.897Z,17.36
2022-09-07T06:37:26.938Z,17.96
2022-09-07T06:39:54.586Z,18.58
2022-09-07T06:42:17.431Z,19.22
2022-09-07T06:44:42.553Z,19.82
2022-09-07T06:47:05.449Z,20.40
2022-09-07T06:49:28.162Z,20.92
2022-09-07T06:51:51.083Z,21.39
2022-09-07T06:57:08.273Z,22.96
2022-09-07T06:59:31.108Z,24.35
2022-09-07T07:01:54.053Z,26.53
2022-09-07T07:04:21.613Z,29.17
2022-09-07T07:06:49.249Z,31.74
2022-09-07T07:09:14.654Z,34.12
2022-09-07T07:11:37.918Z,36.35
2022-09-07T07:14:03.429Z,38.46
2022-09-07T07:16:29.013Z,40.52
2022-09-07T07:18:58.408Z,42.37
2022-09-07T07:21:21.713Z,44.14
2022-09-07T07:23:47.614Z,45.58
2022-09-07T07:26:13.789Z,46.92
2022-09-07T07:31:24.444Z,49.32
2022-09-07T07:33:48.465Z,50.32
2022-09-07T07:36:17.206Z,51.19
2022-09-07T07:44:13.498Z,53.45
2022-09-07T07:46:39.081Z,53.92
2022-09-07T07:49:03.991Z,54.32
2022-09-07T07:51:27.050Z,54.77
2022-09-07T07:53:49.971Z,55.15
2022-09-07T07:56:18.365Z,55.57
2022-09-07T07:58:48.401Z,55.99
2022-09-07T08:01:16.527Z,56.26
2022-09-07T08:03:50.580Z,55.90
2022-09-07T08:06:18.104Z,55.61
2022-09-07T08:08:41.341Z,55.56
2022-09-07T08:11:09.007Z,55.50
2022-09-07T08:13:37.260Z,55.90
2022-09-07T08:16:01.008Z,56.37
2022-09-07T08:18:23.791Z,56.91
2022-09-07T08:20:49.250Z,57.09
2022-09-07T08:23:15.373Z,57.49
2022-09-07T08:25:48.801Z,57.63
2022-09-07T08:28:11.463Z,57.29
2022-09-07T08:30:41.251Z,57.14
2022-09-07T08:33:04.170Z,57.33
2022-09-07T08:35:27.056Z,57.57
2022-09-07T08:37:52.159Z,57.62
2022-09-07T08:40:19.585Z,57.90
2022-09-07T08:43:00.975Z,57.92
2022-09-07T08:45:37.677Z,57.89
2022-09-07T08:48:00.841Z,58.03
2022-09-07T08:50:36.090Z,58.32
2022-09-07T08:53:03.327Z,58.50
2022-09-07T08:55:28.873Z,57.92
2022-09-07T08:58:04.681Z,57.88
2022-09-07T09:00:27.542Z,57.89
2022-09-07T09:05:47.162Z,57.20
2022-09-07T09:08:35.537Z,57.11
2022-09-07T09:11:20.047Z,57.44
2022-09-07T09:14:04.097Z,57.26
2022-09-07T09:16:35.571Z,57.30
2022-09-07T09:19:26.140Z,57.45
2022-09-07T09:22:14.740Z,57.67
2022-09-07T09:24:44.984Z,57.62
2022-09-07T09:27:09.823Z,57.24
2022-09-07T09:29:35.693Z,57.07
2022-09-07T09:32:20.634Z,57.16
2022-09-07T09:35:01.277Z,57.22
2022-09-07T09:37:35.301Z,56.35
2022-09-07T09:40:02.789Z,55.38
2022-09-07T09:42:30.452Z,55.16
2022-09-07T09:44:56.537Z,55.19
2022-09-07T09:47:30.402Z,55.01
2022-09-07T09:49:57.923Z,54.76
2022-09-07T09:52:32.872Z,54.69
2022-09-07T09:55:23.598Z,54.52
2022-09-07T10:01:23.103Z,54.35
2022-09-07T10:06:21.566Z,53.58
2022-09-07T10:09:02.411Z,52.92
2022-09-07T10:12:05.556Z,52.01
2022-09-07T10:14:42.509Z,48.96
2022-09-07T10:17:27.995Z,46.26
2022-09-07T10:19:50.739Z,43.60
2022-09-07T10:22:36.634Z,41.62
2022-09-07T10:25:01.044Z,39.62
2022-09-07T10:27:31.956Z,38.00
2022-09-07T10:29:55.624Z,36.56
2022-09-07T10:32:27.374Z,35.42
2022-09-07T10:35:27.405Z,34.42
2022-09-07T10:37:56.438Z,33.40
2022-09-07T10:40:41.165Z,32.78
2022-09-07T10:43:22.712Z,32.01
2022-09-07T10:45:57.771Z,31.66
2022-09-07T10:48:46.656Z,31.45
2022-09-07T10:51:16.682Z,31.23
2022-09-07T10:53:47.253Z,30.94
2022-09-07T10:56:13.393Z,30.69
2022-09-07T10:59:04.370Z,30.44
2022-09-07T11:01:48.925Z,30.28
2022-09-07T11:04:20.897Z,30.01
2022-09-07T11:06:49.254Z,29.78
2022-09-07T11:09:57.354Z,29.54
2022-09-07T11:12:32.280Z,29.06
2022-09-07T11:15:13.366Z,28.91
2022-09-07T11:17:54.280Z,28.98
2022-09-07T11:20:55.582Z,28.93
2022-09-07T11:23:30.481Z,28.92
2022-09-07T11:26:20.587Z,28.85
2022-09-07T11:32:07.133Z,28.34
2022-09-07T11:34:32.135Z,28.01
2022-09-07T11:37:19.985Z,27.91
2022-09-07T11:39:55.348Z,27.88
2022-09-07T11:42:47.000Z,27.79
2022-09-07T11:45:18.479Z,27.80
2022-09-07T11:48:00.079Z,27.80
2022-09-07T11:50:24.002Z,27.70
2022-09-07T11:53:01.364Z,27.75
2022-09-07T11:55:38.326Z,27.69
2022-09-07T11:58:38.487Z,27.45
2022-09-07T12:01:27.735Z,27.24
2022-09-07T12:04:15.485Z,27.13
2022-09-07T12:07:13.695Z,26.82
2022-09-07T12:09:48.161Z,26.60
2022-09-07T12:12:42.340Z,26.57
2022-09-07T12:15:42.694Z,26.47
2022-09-07T12:18:33.782Z,26.51
2022-09-07T12:21:01.350Z,26.57
2022-09-07T12:23:33.868Z,26.56
2022-09-07T12:26:34.423Z,26.59
2022-09-07T12:28:56.999Z,26.66
2022-09-07T12:31:59.375Z,26.72
2022-09-07T12:34:29.801Z,26.83
2022-09-07T12:36:52.551Z,26.84
2022-09-07T12:39:20.928Z,26.85
2022-09-07T12:41:49.781Z,26.85
2022-09-07T12:44:20.767Z,26.79
2022-09-07T12:46:51.076Z,26.66
2022-09-07T12:49:54.470Z,26.61
2022-09-07T12:52:43.344Z,26.64
2022-09-07T12:56:15.645Z,26.63
2022-09-07T12:58:29.725Z,26.51
2022-09-07T13:01:01.794Z,26.45
2022-09-07T13:04:07.744Z,26.42
2022-09-07T13:07:04.581Z,26.44
2022-09-07T13:09:37.027Z,26.45
2022-09-07T13:12:01.596Z,26.49
2022-09-07T13:14:26.914Z,26.48
2022-09-07T13:17:17.030Z,26.39
2022-09-07T13:19:51.990Z,26.37
2022-09-07T13:22:30.454Z,26.40
2022-09-07T13:24:55.473Z,26.40
2022-09-07T13:27:27.814Z,26.32
2022-09-07T13:30:05.543Z,26.31
2022-09-07T13:35:24.708Z,26.18
2022-09-07T13:38:04.549Z,26.25
2022-09-07T13:40:33.858Z,26.35
2022-09-07T13:43:03.877Z,26.35
2022-09-07T13:45:56.027Z,26.26
2022-09-07T13:48:27.304Z,26.35
2022-09-07T13:51:11.207Z,26.40
2022-09-07T13:54:00.019Z,26.29
2022-09-07T13:56:53.737Z,26.22
2022-09-07T13:59:27.237Z,26.25
2022-09-07T14:01:51.065Z,26.24
2022-09-07T14:04:28.023Z,26.24
2022-09-07T14:06:51.251Z,26.26
2022-09-07T14:09:21.800Z,26.20
2022-09-07T14:11:49.855Z,26.16
2022-09-07T14:14:18.883Z,26.18
2022-09-07T14:16:46.960Z,26.24
2022-09-07T14:19:25.086Z,26.29
2022-09-07T14:22:01.707Z,26.20
2022-09-07T14:24:49.393Z,26.13
2022-09-07T14:27:22.678Z,26.07
2022-09-07T14:29:48.552Z,25.98
2022-09-07T14:32:16.503Z,25.91
2022-09-07T14:34:39.863Z,25.93
2022-09-07T14:37:07.378Z,25.99
2022-09-07T14:39:35.037Z,25.94
2022-09-07T14:42:00.585Z,25.90
2022-09-07T14:44:33.935Z,25.96
2022-09-07T14:47:02.701Z,26.00
2022-09-07T14:49:28.909Z,25.98
2022-09-07T14:51:56.045Z,25.88
2022-09-07T14:54:20.978Z,25.79
2022-09-07T14:57:01.169Z,25.69
2022-09-07T14:59:28.146Z,25.57
2022-09-07T15:01:53.327Z,25.49
2022-09-07T15:04:20.953Z,25.45
2022-09-07T15:09:35.962Z,25.52
2022-09-07T15:12:32.970Z,25.57
2022-09-07T15:14:59.044Z,25.57
2022-09-07T15:20:43.425Z,25.57
2022-09-07T15:23:14.036Z,25.52
2022-09-07T15:25:37.236Z,25.54
2022-09-07T15:28:04.738Z,25.46
2022-09-07T15:30:27.556Z,25.41
2022-09-07T15:32:50.371Z,25.42
2022-09-07T15:35:13.391Z,25.42
2022-09-07T15:40:22.532Z,25.41
2022-09-07T15:43:02.079Z,25.47
2022-09-07T15:45:27.820Z,25.46
2022-09-07T15:47:52.828Z,25.38
2022-09-07T15:50:16.469Z,25.34
2022-09-07T15:52:41.510Z,25.33
2022-09-07T15:55:05.549Z,25.36
2022-09-07T16:00:13.979Z,25.35
2022-09-07T16:05:20.177Z,25.27
2022-09-07T16:10:32.706Z,25.17
2022-09-07T16:13:10.106Z,25.17
2022-09-07T16:15:35.202Z,25.13
2022-09-07T16:17:58.752Z,25.03
2022-09-07T16:20:23.961Z,24.93
2022-09-07T16:25:32.125Z,24.84
2022-09-07T16:27:54.829Z,24.85
2022-09-07T16:30:20.239Z,24.83
2022-09-07T16:32:44.446Z,24.78
2022-09-07T16:35:08.090Z,24.69
2022-09-07T16:37:36.151Z,24.62
2022-09-07T16:40:01.386Z,24.56
2022-09-07T16:42:24.210Z,24.45
2022-09-07T16:44:47.605Z,24.35
2022-09-07T16:47:12.827Z,24.26
2022-09-07T16:49:35.939Z,24.20
2022-09-07T16:52:00.919Z,24.14
2022-09-07T16:54:26.091Z,24.06
2022-09-07T16:56:53.808Z,23.96
2022-09-07T16:59:18.332Z,23.86
2022-09-07T17:01:45.658Z,23.70
2022-09-07T17:04:11.592Z,23.55
2022-09-07T17:06:34.851Z,23.43
2022-09-07T17:08:59.351Z,23.35
2022-09-07T17:11:26.005Z,23.23
2022-09-07T17:13:50.190Z,23.10
2022-09-07T17:16:21.825Z,22.99
2022-09-07T17:21:38.430Z,22.82
2022-09-07T17:24:04.203Z,22.71
2022-09-07T17:26:30.032Z,22.58
2022-09-07T17:28:55.047Z,22.46
2022-09-07T17:34:04.726Z,22.21
2022-09-07T17:36:31.057Z,22.09
2022-09-07T17:41:36.954Z,21.87
2022-09-07T17:44:00.597Z,21.81
2022-09-07T17:46:33.717Z,21.76
2022-09-07T17:49:01.180Z,21.69
2022-09-07T17:51:26.620Z,21.62
2022-09-07T17:53:49.921Z,21.56
2022-09-07T17:56:14.823Z,21.49
2022-09-07T17:58:39.338Z,21.41
2022-09-07T18:01:03.659Z,21.32
2022-09-07T18:03:30.126Z,21.22
2022-09-07T18:06:00.350Z,21.14
2022-09-07T18:08:26.063Z,21.08
2022-09-07T18:13:38.691Z,20.82
2022-09-07T18:16:09.357Z,20.70
2022-09-07T18:18:34.741Z,20.59
2022-09-07T18:20:59.839Z,20.49
2022-09-07T18:23:24.739Z,20.40
2022-09-07T18:25:59.165Z,20.32
2022-09-07T18:31:09.279Z,20.12
2022-09-07T18:33:34.946Z,20.05
2022-09-07T18:36:00.498Z,19.98
2022-09-07T18:38:25.774Z,19.90
2022-09-07T18:40:50.957Z,19.85
2022-09-07T18:43:14.570Z,19.78
2022-09-07T18:45:39.694Z,19.74
2022-09-07T18:48:03.131Z,19.69
2022-09-07T18:50:26.280Z,19.64
2022-09-07T18:52:53.093Z,19.59
2022-09-07T18:55:19.237Z,19.54
2022-09-07T18:57:42.406Z,19.52
2022-09-07T19:00:09.909Z,19.48
2022-09-07T19:02:36.093Z,19.40
2022-09-07T19:07:47.179Z,19.29
2022-09-07T19:10:11.646Z,19.27
2022-09-07T19:12:42.597Z,19.24
2022-09-07T19:15:08.514Z,19.16
2022-09-07T19:17:31.928Z,19.12
2022-09-07T19:19:56.785Z,19.12
2022-09-07T19:22:19.506Z,19.11
2022-09-07T19:24:42.284Z,19.07
2022-09-07T19:27:05.442Z,19.03
2022-09-07T19:29:29.429Z,18.98
2022-09-07T19:32:05.656Z,18.93
2022-09-07T19:34:28.352Z,18.89
2022-09-07T19:36:51.070Z,18.88
2022-09-07T19:39:13.817Z,18.90
2022-09-07T19:41:41.071Z,18.95
2022-09-07T19:44:04.048Z,18.97
2022-09-07T19:46:26.974Z,18.97
2022-09-07T19:48:50.034Z,18.94
2022-09-07T19:51:20.052Z,18.88
2022-09-07T19:53:45.663Z,18.87
2022-09-07T19:56:16.111Z,18.84
2022-09-07T19:58:41.803Z,18.83
2022-09-07T20:01:23.247Z,18.82
2022-09-07T20:03:55.160Z,18.79
2022-09-07T20:06:19.229Z,18.76
2022-09-07T20:08:43.421Z,18.73
2022-09-07T20:11:10.673Z,18.74
2022-09-07T20:13:36.083Z,18.76
2022-09-07T20:15:59.514Z,18.78
2022-09-07T20:18:22.598Z,18.77
2022-09-07T20:20:45.269Z,18.76
2022-09-07T20:23:10.658Z,18.76
2022-09-07T20:25:36.579Z,18.72
2022-09-07T20:27:59.238Z,18.71
2022-09-07T20:30:24.529Z,18.68
2022-09-07T20:32:49.527Z,18.62
2022-09-07T20:35:12.276Z,18.60
2022-09-07T20:37:35.034Z,18.58
2022-09-07T20:40:02.453Z,18.55
2022-09-07T20:42:25.534Z,18.55
2022-09-07T20:44:48.133Z,18.54
2022-09-07T20:47:11.284Z,18.49
2022-09-07T20:49:36.509Z,18.49
2022-09-07T20:51:59.189Z,18.46
2022-09-07T20:54:22.246Z,18.45
2022-09-07T20:56:45.246Z,18.38
2022-09-07T20:59:08.256Z,18.30
2022-09-07T21:01:32.475Z,18.25
2022-09-07T21:03:59.325Z,18.25
2022-09-07T21:06:26.188Z,18.28
2022-09-07T21:08:52.358Z,18.31
2022-09-07T21:11:20.935Z,18.30
2022-09-07T21:13:44.191Z,18.29
2022-09-07T21:16:12.103Z,18.27
2022-09-07T21:18:35.448Z,18.26
2022-09-07T21:21:19.328Z,18.24
2022-09-07T21:23:43.077Z,18.23
2022-09-07T21:26:06.101Z,18.20
2022-09-07T21:28:29.337Z,18.18
2022-09-07T21:31:09.425Z,18.17
2022-09-07T21:33:36.660Z,18.15
2022-09-07T21:36:14.863Z,18.12
2022-09-07T21:38:38.964Z,18.07
2022-09-07T21:41:10.192Z,18.03
2022-09-07T21:43:33.090Z,17.99
2022-09-07T21:45:58.266Z,17.96
2022-09-07T21:48:23.454Z,17.92
2022-09-07T21:50:51.013Z,17.88
2022-09-07T21:53:14.464Z,17.83
2022-09-07T21:55:39.518Z,17.80
2022-09-07T21:58:04.784Z,17.77
2022-09-07T22:00:30.147Z,17.75
2022-09-07T22:02:55.399Z,17.72
2022-09-07T22:05:18.092Z,17.68
2022-09-07T22:07:43.249Z,17.64
2022-09-07T22:10:08.399Z,17.59
2022-09-07T22:12:31.248Z,17.53
2022-09-07T22:14:58.761Z,17.46
2022-09-07T22:17:21.716Z,17.42
2022-09-07T22:19:45.280Z,17.36
2022-09-07T22:22:10.795Z,17.33
2022-09-07T22:24:33.471Z,17.26
2022-09-07T22:26:58.810Z,17.23
2022-09-07T22:29:21.491Z,17.18
2022-09-07T22:31:46.433Z,17.13
2022-09-07T22:34:10.591Z,17.04
2022-09-07T22:36:38.751Z,17.01
2022-09-07T22:39:04.419Z,17.00
2022-09-07T22:41:32.953Z,16.99
2022-09-07T22:43:56.621Z,16.97
2022-09-07T22:46:21.648Z,16.92
2022-09-07T22:48:44.881Z,16.90
2022-09-07T22:51:09.119Z,16.87
2022-09-07T22:53:34.401Z,16.83
2022-09-07T22:55:58.136Z,16.76
2022-09-07T22:58:24.060Z,16.73
